Time;durP1;ratioP1;P1;durP2;ratioP2;P2;SDS_P1;SDS_P2;PMS_P1;PMS_P2;Temp;Humidity;BMP_temperature;BMP_pressure;BME280_temperature;BME280_humidity;BME280_pressure;Samples;Min_cycle;Max_cycle;Signal;HPM_P1;HPM_P2
2023/09/28 00:00:44;;;;;;;19.85;15.95;;;18.40;99.90;;;;;;5014485;28;20037;-74
2023/09/28 00:02:48;;;;;;;20.88;15.68;;;18.40;99.90;;;;;;5005727;28;20064;-74
2023/09/28 00:05:15;;;;;;;20.30;16.60;;;18.40;99.90;;;;;;5014805;28;20060;-74
2023/09/28 00:07:41;;;;;;;21.10;16.67;;;18.30;99.90;;;;;;5014674;28;20092;-74
2023/09/28 00:10:09;;;;;;;20.42;15.20;;;18.30;99.90;;;;;;5013321;28;20060;-74
2023/09/28 00:12:35;;;;;;;18.60;15.90;;;18.30;99.90;;;;;;5014687;28;20072;-74
2023/09/28 00:15:00;;;;;;;19.90;15.82;;;18.30;99.90;;;;;;5013755;28;20046;-74
2023/09/28 00:17:26;;;;;;;17.67;15.50;;;18.30;99.90;;;;;;5014165;28;20050;-74
2023/09/28 00:19:52;;;;;;;20.45;14.45;;;18.20;99.90;;;;;;5014306;28;20085;-74
2023/09/28 00:22:18;;;;;;;19.20;15.35;;;18.20;99.90;;;;;;5013719;28;20046;-74
2023/09/28 00:24:43;;;;;;;20.08;14.77;;;18.30;99.90;;;;;;5014236;28;20109;-75
2023/09/28 00:27:09;;;;;;;16.83;14.93;;;18.20;99.90;;;;;;5013947;28;20054;-74
2023/09/28 00:29:35;;;;;;;16.83;13.93;;;18.20;99.90;;;;;;5013893;28;20465;-74
2023/09/28 00:32:00;;;;;;;18.33;14.95;;;18.30;99.90;;;;;;5012676;28;20088;-74
2023/09/28 00:34:26;;;;;;;17.73;14.68;;;18.20;99.90;;;;;;5014092;28;20089;-74
2023/09/28 00:36:52;;;;;;;22.30;14.75;;;18.10;99.90;;;;;;5013349;28;20034;-74
2023/09/28 00:39:17;;;;;;;17.63;13.38;;;18.00;99.90;;;;;;5014304;28;20080;-74
2023/09/28 00:41:45;;;;;;;17.73;13.75;;;18.00;99.90;;;;;;5006269;28;20053;-74
2023/09/28 00:44:14;;;;;;;15.90;12.85;;;18.00;99.90;;;;;;4993520;28;20177;-74
2023/09/28 00:46:39;;;;;;;16.13;13.55;;;18.00;99.90;;;;;;4994533;28;20077;-74
2023/09/28 00:49:05;;;;;;;17.52;13.48;;;18.00;99.90;;;;;;4994285;28;20129;-74
2023/09/28 00:51:34;;;;;;;19.77;12.82;;;18.00;99.90;;;;;;4993686;28;20128;-74
2023/09/28 00:54:00;;;;;;;15.00;11.40;;;18.00;99.90;;;;;;4993714;28;20105;-73
2023/09/28 00:56:27;;;;;;;17.70;13.07;;;18.20;99.90;;;;;;4994330;28;20042;-74
2023/09/28 00:58:56;;;;;;;17.50;12.63;;;18.20;99.90;;;;;;4994433;28;20046;-73
2023/09/28 01:01:26;;;;;;;14.57;12.23;;;18.10;99.90;;;;;;4998959;28;20065;-74
2023/09/28 01:03:55;;;;;;;15.20;11.63;;;18.20;99.90;;;;;;5013047;28;20141;-74
2023/09/28 01:06:21;;;;;;;15.18;11.52;;;18.10;99.90;;;;;;5013077;28;20366;-74
2023/09/28 01:08:47;;;;;;;13.82;11.18;;;18.00;99.90;;;;;;5013935;28;20045;-74
2023/09/28 01:11:12;;;;;;;15.55;11.45;;;18.00;99.90;;;;;;5013053;28;20081;-74
2023/09/28 01:13:39;;;;;;;14.20;11.10;;;18.00;99.90;;;;;;5013848;28;20109;-74
2023/09/28 01:16:05;;;;;;;14.60;11.30;;;17.90;99.90;;;;;;5013337;28;20099;-74
2023/09/28 01:18:31;;;;;;;14.88;10.65;;;17.90;99.90;;;;;;4994574;28;20105;-74
2023/09/28 01:20:58;;;;;;;11.75;10.07;;;17.80;99.90;;;;;;4993433;28;20057;-74
2023/09/28 01:23:23;;;;;;;12.02;10.25;;;17.80;99.90;;;;;;4993817;28;20043;-74
2023/09/28 01:25:52;;;;;;;12.43;10.40;;;17.80;99.90;;;;;;4992886;28;20124;-73
2023/09/28 01:28:18;;;;;;;13.30;10.38;;;17.70;99.90;;;;;;4994638;28;20081;-74
2023/09/28 01:30:44;;;;;;;12.70;10.52;;;17.70;99.90;;;;;;4993644;28;20478;-74
2023/09/28 01:33:10;;;;;;;14.07;10.85;;;17.70;99.90;;;;;;4992427;28;20042;-73
2023/09/28 01:35:36;;;;;;;12.68;10.05;;;17.60;99.90;;;;;;4993578;28;20505;-73
2023/09/28 01:38:26;;;;;;;14.35;9.65;;;17.60;99.90;;;;;;4992972;28;20042;-74
2023/09/28 01:40:54;;;;;;;12.75;9.88;;;17.60;99.90;;;;;;4992575;28;20133;-74
2023/09/28 01:43:20;;;;;;;12.95;9.32;;;17.50;99.90;;;;;;4993200;28;20496;-74
2023/09/28 01:45:46;;;;;;;11.13;8.75;;;17.40;99.90;;;;;;4993157;28;20129;-74
2023/09/28 01:48:12;;;;;;;9.93;7.95;;;17.40;99.90;;;;;;5006680;28;20405;-74
2023/09/28 01:50:37;;;;;;;11.40;7.80;;;17.40;99.90;;;;;;5012849;28;20056;-74
2023/09/28 01:53:03;;;;;;;10.35;7.43;;;17.30;99.90;;;;;;5013961;28;20425;-74
2023/09/28 01:55:29;;;;;;;11.32;8.13;;;17.40;99.90;;;;;;5011782;28;20050;-74
2023/09/28 01:57:55;;;;;;;10.50;7.80;;;17.40;99.90;;;;;;5012132;28;20049;-74
2023/09/28 02:00:24;;;;;;;11.20;7.68;;;17.30;99.90;;;;;;4995380;28;20364;-74
2023/09/28 02:02:55;;;;;;;10.23;7.53;;;17.40;99.90;;;;;;4992632;28;20062;-74
2023/09/28 02:05:25;;;;;;;10.40;7.63;;;17.30;99.90;;;;;;4992897;28;20406;-74
2023/09/28 02:07:51;;;;;;;9.57;7.40;;;17.20;99.90;;;;;;5002796;28;20050;-74
2023/09/28 02:10:17;;;;;;;12.90;8.18;;;17.20;99.90;;;;;;5012492;28;20445;-74
2023/09/28 02:12:44;;;;;;;9.80;7.40;;;17.20;99.90;;;;;;5012318;28;20393;-74
2023/09/28 02:15:10;;;;;;;9.38;7.47;;;17.20;99.90;;;;;;5011789;28;20046;-74
2023/09/28 02:17:39;;;;;;;9.93;7.35;;;17.10;99.90;;;;;;5012696;28;20045;-74
2023/09/28 02:20:08;;;;;;;10.75;7.43;;;17.00;99.90;;;;;;4999513;28;20073;-74
2023/09/28 02:22:44;;;;;;;10.95;7.22;;;17.00;99.90;;;;;;4992191;28;20034;-74
2023/09/28 02:25:14;;;;;;;9.53;7.80;;;17.10;99.90;;;;;;4992492;28;20057;-74
2023/09/28 02:27:41;;;;;;;10.80;7.22;;;17.00;99.90;;;;;;4992508;28;20725;-74
2023/09/28 02:30:14;;;;;;;11.70;7.20;;;17.00;99.90;;;;;;4991845;28;20046;-74
2023/09/28 02:32:42;;;;;;;12.07;7.60;;;17.00;99.90;;;;;;4993017;28;20054;-74
2023/09/28 02:35:09;;;;;;;11.70;7.82;;;16.90;99.90;;;;;;4992206;28;20057;-74
2023/09/28 02:37:35;;;;;;;9.60;7.55;;;16.80;99.90;;;;;;4991931;28;20529;-74
2023/09/28 02:40:05;;;;;;;9.93;7.50;;;16.80;99.90;;;;;;4992106;28;20047;-74
2023/09/28 02:42:31;;;;;;;12.95;8.02;;;16.80;99.90;;;;;;4991992;28;20053;-74
2023/09/28 02:44:58;;;;;;;9.55;7.40;;;16.80;99.90;;;;;;4991688;28;20062;-74
2023/09/28 02:47:24;;;;;;;10.32;7.97;;;16.70;99.90;;;;;;4992196;28;20414;-74
2023/09/28 02:49:51;;;;;;;11.23;7.97;;;16.60;99.90;;;;;;4991479;28;20050;-74
2023/09/28 02:52:17;;;;;;;10.88;7.88;;;16.70;99.90;;;;;;4995468;28;20112;-74
2023/09/28 02:54:46;;;;;;;10.65;8.00;;;16.70;99.90;;;;;;5011036;28;20132;-74
2023/09/28 02:57:15;;;;;;;15.20;7.95;;;16.70;99.90;;;;;;5011347;28;20042;-74
2023/09/28 02:59:41;;;;;;;11.68;8.02;;;16.80;99.90;;;;;;5011760;28;20370;-74
2023/09/28 03:02:09;;;;;;;12.05;8.65;;;16.70;99.90;;;;;;5010825;28;20403;-75
2023/09/28 03:04:35;;;;;;;8.90;7.13;;;16.80;99.90;;;;;;5010416;28;20057;-74
2023/09/28 03:07:01;;;;;;;11.52;7.93;;;16.70;99.90;;;;;;5011379;28;20042;-74
2023/09/28 03:09:27;;;;;;;13.15;7.72;;;16.70;99.90;;;;;;5013123;28;20050;-75
2023/09/28 03:11:57;;;;;;;11.75;7.72;;;16.70;99.90;;;;;;5010382;28;20041;-74
2023/09/28 03:14:22;;;;;;;10.23;7.60;;;16.80;99.90;;;;;;4992225;28;20046;-75
2023/09/28 03:16:48;;;;;;;11.75;7.95;;;16.80;99.90;;;;;;4991604;28;20548;-74
2023/09/28 03:19:14;;;;;;;12.07;7.95;;;16.70;99.90;;;;;;4992413;28;20065;-74
2023/09/28 03:21:44;;;;;;;12.45;7.82;;;16.70;99.90;;;;;;5003775;28;20046;-75
2023/09/28 03:24:10;;;;;;;11.75;7.60;;;16.70;99.90;;;;;;5012524;28;20100;-74
2023/09/28 03:26:36;;;;;;;12.10;7.78;;;16.80;99.90;;;;;;5010664;28;20497;-74
2023/09/28 03:29:02;;;;;;;11.57;8.00;;;16.70;99.90;;;;;;5012006;28;20432;-74
2023/09/28 03:31:28;;;;;;;9.95;7.72;;;16.70;99.90;;;;;;5012863;28;20045;-74
2023/09/28 03:33:54;;;;;;;12.73;7.90;;;16.60;99.90;;;;;;5011618;28;20049;-74
2023/09/28 03:36:21;;;;;;;13.30;8.00;;;16.60;99.90;;;;;;5006474;28;20397;-74
2023/09/28 03:38:48;;;;;;;11.05;7.65;;;16.60;99.90;;;;;;5006736;28;20077;-74
2023/09/28 03:41:14;;;;;;;11.27;8.02;;;16.60;99.90;;;;;;5009001;28;20049;-74
2023/09/28 03:43:42;;;;;;;12.52;7.95;;;16.50;99.90;;;;;;5011472;28;20084;-74
2023/09/28 03:46:08;;;;;;;13.07;8.32;;;16.50;99.90;;;;;;5010328;28;20050;-74
2023/09/28 03:48:35;;;;;;;11.30;7.40;;;16.40;99.90;;;;;;5014134;23;20046;-75
2023/09/28 03:51:05;;;;;;;11.02;7.80;;;16.40;99.90;;;;;;4975878;28;20050;-74
2023/09/28 03:53:32;;;;;;;9.80;7.53;;;16.40;99.90;;;;;;4975050;28;20054;-74
2023/09/28 03:55:58;;;;;;;10.00;7.10;;;16.30;99.90;;;;;;4969642;28;20541;-74
2023/09/28 03:58:24;;;;;;;10.90;7.45;;;16.30;99.90;;;;;;4956272;28;20055;-74
2023/09/28 04:00:50;;;;;;;10.95;7.43;;;16.20;99.90;;;;;;4955176;28;20060;-74
2023/09/28 04:03:15;;;;;;;12.82;7.40;;;16.20;99.90;;;;;;4956232;28;20115;-74
2023/09/28 04:05:44;;;;;;;9.32;6.88;;;16.20;99.90;;;;;;4958001;28;20047;-74
2023/09/28 04:08:10;;;;;;;12.82;6.68;;;16.20;99.90;;;;;;4958798;28;20070;-74
2023/09/28 04:10:39;;;;;;;12.55;5.70;;;16.10;99.90;;;;;;4960004;28;20073;-74
2023/09/28 04:13:05;;;;;;;8.13;4.88;;;16.20;99.90;;;;;;4959152;28;20523;-74
2023/09/28 04:15:30;;;;;;;7.57;4.20;;;16.20;99.90;;;;;;4960095;28;20050;-74
2023/09/28 04:18:00;;;;;;;10.52;3.53;;;16.20;99.90;;;;;;4976960;28;20085;-73
2023/09/28 04:20:26;;;;;;;14.98;3.25;;;16.20;99.90;;;;;;4974235;28;20101;-73
2023/09/28 04:22:52;;;;;;;13.75;3.35;;;16.20;99.90;;;;;;4975841;28;20062;-73
2023/09/28 04:25:20;;;;;;;12.63;2.90;;;16.20;99.90;;;;;;4976713;28;20043;-73
2023/09/28 04:27:49;;;;;;;8.95;2.40;;;16.30;99.90;;;;;;4960538;28;20051;-72
2023/09/28 04:30:15;;;;;;;15.13;2.38;;;16.30;99.90;;;;;;4958706;28;20050;-72
2023/09/28 04:32:41;;;;;;;14.93;3.03;;;16.30;99.90;;;;;;4957671;28;20058;-73
2023/09/28 04:35:10;;;;;;;13.52;3.00;;;16.20;99.90;;;;;;4956807;28;20131;-72
2023/09/28 04:37:39;;;;;;;17.05;4.38;;;16.20;99.90;;;;;;4959150;28;20054;-72
2023/09/28 04:40:08;;;;;;;15.75;3.10;;;16.20;99.90;;;;;;4958737;28;20053;-72
2023/09/28 04:42:34;;;;;;;12.48;2.90;;;16.20;99.90;;;;;;4975040;28;20402;-72
2023/09/28 04:45:00;;;;;;;12.93;2.97;;;16.10;99.90;;;;;;4978034;28;20042;-72
2023/09/28 04:47:25;;;;;;;11.45;2.63;;;16.10;99.90;;;;;;4978183;28;20050;-72
2023/09/28 04:49:51;;;;;;;16.13;3.40;;;16.00;99.90;;;;;;4977020;28;20061;-72
2023/09/28 04:52:17;;;;;;;19.63;3.72;;;16.00;99.90;;;;;;4980329;28;20518;-72
2023/09/28 04:54:43;;;;;;;21.42;4.20;;;15.90;99.90;;;;;;4958353;28;20043;-72
2023/09/28 04:57:09;;;;;;;15.77;3.45;;;15.90;99.90;;;;;;4958618;28;20050;-72
2023/09/28 04:59:38;;;;;;;16.55;3.17;;;16.00;99.90;;;;;;4958668;28;20042;-73
2023/09/28 05:02:04;;;;;;;18.48;3.50;;;15.90;99.90;;;;;;4959075;28;20047;-73
2023/09/28 05:04:30;;;;;;;14.90;3.20;;;15.80;99.90;;;;;;4958014;28;20105;-72
2023/09/28 05:06:59;;;;;;;18.20;3.28;;;15.80;99.90;;;;;;4977649;28;20042;-74
2023/09/28 05:09:28;;;;;;;13.32;2.97;;;15.80;99.90;;;;;;4978003;28;20402;-73
2023/09/28 05:11:56;;;;;;;20.90;3.85;;;15.80;99.90;;;;;;4975886;28;20035;-74
2023/09/28 05:14:24;;;;;;;18.65;3.63;;;15.70;99.90;;;;;;4977593;28;20089;-74
2023/09/28 05:16:50;;;;;;;20.90;3.30;;;15.70;99.90;;;;;;4994026;28;20482;-74
2023/09/28 05:19:16;;;;;;;20.20;3.75;;;15.70;99.90;;;;;;4976670;28;20057;-75
2023/09/28 05:21:42;;;;;;;21.60;3.30;;;15.70;99.90;;;;;;4975885;28;20362;-73
2023/09/28 05:24:07;;;;;;;21.05;3.70;;;15.70;99.90;;;;;;4972006;28;20133;-72
2023/09/28 05:26:33;;;;;;;21.63;3.15;;;15.80;99.90;;;;;;4975325;28;20103;-80
2023/09/28 05:28:59;;;;;;;17.45;3.70;;;15.80;99.90;;;;;;4976907;28;20513;-78
2023/09/28 05:31:25;;;;;;;17.08;3.05;;;15.90;99.90;;;;;;4976649;28;20050;-78
2023/09/28 05:33:51;;;;;;;21.55;3.70;;;16.00;99.90;;;;;;4976011;28;20046;-72
2023/09/28 05:36:17;;;;;;;20.58;3.20;;;16.10;99.90;;;;;;4987012;28;20054;-75
2023/09/28 05:38:42;;;;;;;18.95;3.83;;;16.10;99.90;;;;;;4974422;28;20054;-71
2023/09/28 05:41:08;;;;;;;19.08;3.10;;;16.10;99.90;;;;;;4960825;28;20043;-73
2023/09/28 05:43:34;;;;;;;17.60;3.15;;;16.10;99.90;;;;;;4977151;28;20116;-72
2023/09/28 05:46:00;;;;;;;24.17;3.33;;;16.00;99.90;;;;;;4975908;28;20545;-72
2023/09/28 05:48:25;;;;;;;20.30;3.58;;;16.10;99.90;;;;;;4976410;28;20046;-74
2023/09/28 05:50:53;;;;;;;15.52;3.58;;;16.10;99.90;;;;;;4976461;28;20137;-72
2023/09/28 05:53:18;;;;;;;19.35;3.28;;;16.10;99.90;;;;;;4972841;28;20470;-73
2023/09/28 05:55:44;;;;;;;15.30;3.25;;;16.20;99.90;;;;;;4976742;28;20048;-71
2023/09/28 05:58:10;;;;;;;17.25;3.30;;;16.30;99.90;;;;;;4993792;28;20056;-71
2023/09/28 06:00:37;;;;;;;12.27;3.33;;;16.30;99.90;;;;;;4972694;28;20047;-71
2023/09/28 06:03:04;;;;;;;22.02;4.88;;;16.30;99.90;;;;;;4976074;28;20422;-71
2023/09/28 06:05:29;;;;;;;18.30;3.38;;;16.40;99.90;;;;;;4977055;28;20046;-71
2023/09/28 06:07:55;;;;;;;21.30;3.63;;;16.40;99.90;;;;;;4975314;28;20129;-73
2023/09/28 06:10:21;;;;;;;17.40;3.38;;;16.50;99.90;;;;;;4976859;28;20462;-71
2023/09/28 06:12:46;;;;;;;20.52;4.35;;;16.50;99.90;;;;;;4974279;28;20525;-73
2023/09/28 06:15:14;;;;;;;21.75;4.00;;;16.50;99.90;;;;;;4973291;28;20061;-74
2023/09/28 06:17:40;;;;;;;22.90;4.18;;;16.50;99.90;;;;;;4979882;28;20430;-80
2023/09/28 06:20:08;;;;;;;19.70;3.35;;;16.40;99.90;;;;;;4981380;28;20510;-87
2023/09/28 06:22:34;;;;;;;22.00;3.72;;;16.40;99.90;;;;;;4989416;28;20549;-74
2023/09/28 06:25:02;;;;;;;21.85;4.30;;;16.40;99.90;;;;;;4976020;28;20046;-77
2023/09/28 06:27:30;;;;;;;21.80;3.40;;;16.50;99.90;;;;;;4971236;28;20046;-75
2023/09/28 06:29:56;;;;;;;16.48;3.33;;;16.60;99.90;;;;;;4972333;28;20501;-75
2023/09/28 06:32:25;;;;;;;20.58;3.58;;;16.70;99.90;;;;;;4974810;28;20076;-76
2023/09/28 06:34:51;;;;;;;19.48;3.65;;;16.70;99.90;;;;;;4974565;28;20530;-75
2023/09/28 06:37:17;;;;;;;14.70;3.30;;;16.80;99.90;;;;;;4973180;28;20051;-75
2023/09/28 06:39:43;;;;;;;15.82;2.83;;;16.80;99.90;;;;;;4986065;28;20042;-75
2023/09/28 06:42:08;;;;;;;17.75;3.78;;;16.80;99.90;;;;;;4988694;28;20050;-75
2023/09/28 06:44:37;;;;;;;19.75;3.40;;;16.80;99.90;;;;;;4976966;28;20089;-75
2023/09/28 06:47:02;;;;;;;16.40;3.40;;;16.80;99.90;;;;;;4989990;28;20470;-75
2023/09/28 06:49:28;;;;;;;22.85;3.90;;;16.80;99.90;;;;;;4970429;28;20058;-75
2023/09/28 06:51:54;;;;;;;19.77;3.45;;;16.80;99.90;;;;;;4969146;28;20047;-75
2023/09/28 06:54:20;;;;;;;19.10;3.40;;;16.80;99.90;;;;;;4969216;28;20042;-75
2023/09/28 06:56:49;;;;;;;20.92;3.70;;;16.80;99.90;;;;;;4987744;28;20050;-76
2023/09/28 06:59:15;;;;;;;19.00;4.30;;;16.90;99.90;;;;;;4965278;28;20039;-76
2023/09/28 07:01:41;;;;;;;23.88;3.72;;;16.90;99.90;;;;;;4968613;28;20046;-76
2023/09/28 07:04:07;;;;;;;18.98;3.15;;;16.90;99.90;;;;;;4960647;28;20922;-75
2023/09/28 07:06:36;;;;;;;25.25;4.15;;;16.90;99.90;;;;;;4963367;28;20053;-75
2023/09/28 07:09:02;;;;;;;15.88;4.00;;;16.90;99.90;;;;;;4971174;28;20050;-76
2023/09/28 07:11:28;;;;;;;24.55;4.20;;;17.00;99.90;;;;;;4971451;28;20077;-76
2023/09/28 07:13:54;;;;;;;19.48;3.97;;;17.00;99.90;;;;;;4968085;28;20169;-76
2023/09/28 07:16:20;;;;;;;21.25;4.45;;;17.10;99.90;;;;;;4971904;28;20056;-76
2023/09/28 07:18:45;;;;;;;23.00;4.15;;;17.20;99.90;;;;;;4961595;28;20035;-76
2023/09/28 07:21:11;;;;;;;19.58;3.67;;;17.20;99.90;;;;;;4953072;29;20440;-76
2023/09/28 07:23:41;;;;;;;18.98;3.45;;;17.30;99.90;;;;;;4960676;28;20474;-83
2023/09/28 07:26:16;;;;;;;24.65;3.92;;;17.40;99.90;;;;;;4967787;28;20406;-74
2023/09/28 07:28:43;;;;;;;19.60;3.60;;;17.50;99.90;;;;;;4970949;28;20047;-74
2023/09/28 07:31:09;;;;;;;18.27;3.67;;;17.50;99.90;;;;;;4986492;28;20047;-74
2023/09/28 07:33:39;;;;;;;23.98;3.80;;;17.50;99.90;;;;;;4958189;28;20046;-75
2023/09/28 07:36:07;;;;;;;16.05;3.85;;;17.70;99.90;;;;;;4952650;29;20502;-74
2023/09/28 07:38:33;;;;;;;22.17;3.97;;;17.70;99.90;;;;;;4954485;28;20050;-76
2023/09/28 07:41:00;;;;;;;22.30;4.07;;;17.70;99.90;;;;;;4974725;28;20406;-75
2023/09/28 07:43:26;;;;;;;20.05;3.40;;;17.70;99.90;;;;;;4970295;28;20105;-76
2023/09/28 07:45:51;;;;;;;22.65;3.88;;;17.60;99.90;;;;;;4975914;28;20089;-76
2023/09/28 07:48:17;;;;;;;25.50;4.25;;;17.70;99.90;;;;;;4986203;28;20098;-78
2023/09/28 07:50:43;;;;;;;18.45;4.13;;;17.70;99.90;;;;;;4995096;28;20083;-76
2023/09/28 07:53:10;;;;;;;22.58;4.05;;;17.70;99.90;;;;;;4993499;28;20104;-77
2023/09/28 07:55:37;;;;;;;17.38;3.78;;;17.70;99.90;;;;;;4994715;28;20042;-77
2023/09/28 07:58:02;;;;;;;14.45;3.78;;;17.80;99.90;;;;;;4994360;28;20046;-75
2023/09/28 08:00:28;;;;;;;18.17;3.58;;;17.70;99.90;;;;;;4988293;28;20031;-75
2023/09/28 08:02:55;;;;;;;20.48;3.75;;;17.70;99.90;;;;;;4974047;28;20103;-77
2023/09/28 08:05:22;;;;;;;20.77;3.85;;;17.70;99.90;;;;;;4970068;28;20732;-75
2023/09/28 08:07:48;;;;;;;16.40;3.10;;;17.70;99.90;;;;;;4979163;28;20035;-75
2023/09/28 08:10:15;;;;;;;18.63;3.28;;;17.80;99.90;;;;;;4982187;28;20078;-75
2023/09/28 08:12:42;;;;;;;17.48;3.42;;;18.00;99.90;;;;;;4968842;28;20084;-74
2023/09/28 08:15:08;;;;;;;14.25;3.67;;;18.00;99.90;;;;;;4966130;28;20062;-75
2023/09/28 08:17:36;;;;;;;16.13;3.17;;;17.90;99.90;;;;;;4968522;28;20035;-75
2023/09/28 08:20:02;;;;;;;19.20;3.67;;;17.90;99.90;;;;;;4973874;28;20042;-75
2023/09/28 08:22:28;;;;;;;17.70;3.38;;;17.90;99.90;;;;;;4988698;28;20053;-76
2023/09/28 08:24:53;;;;;;;22.67;3.60;;;18.10;99.90;;;;;;4992775;28;20128;-75
2023/09/28 08:27:19;;;;;;;14.32;3.22;;;18.00;99.90;;;;;;4974175;28;20043;-74
2023/09/28 08:29:45;;;;;;;19.55;3.70;;;18.00;99.90;;;;;;4974878;28;20099;-76
2023/09/28 08:32:10;;;;;;;18.08;3.63;;;17.90;99.90;;;;;;4974967;28;20150;-75
2023/09/28 08:34:36;;;;;;;19.33;3.50;;;18.00;99.90;;;;;;4974809;28;20069;-77
2023/09/28 08:37:03;;;;;;;19.35;3.58;;;18.00;99.90;;;;;;4976160;28;20134;-76
2023/09/28 08:39:30;;;;;;;17.17;3.72;;;17.90;99.90;;;;;;4994603;28;20046;-76
2023/09/28 08:42:00;;;;;;;17.25;3.67;;;18.00;99.90;;;;;;4994855;28;20054;-77
2023/09/28 08:44:31;;;;;;;16.13;3.42;;;18.00;99.90;;;;;;4994350;28;20125;-77
2023/09/28 08:46:58;;;;;;;17.27;3.72;;;18.10;99.90;;;;;;4982545;28;20424;-77
2023/09/28 08:49:27;;;;;;;17.38;4.07;;;18.20;99.90;;;;;;4964179;28;20142;-77
2023/09/28 08:51:56;;;;;;;20.95;3.42;;;18.20;99.90;;;;;;4961531;28;20095;-84
2023/09/28 08:54:25;;;;;;;20.67;4.00;;;18.20;99.90;;;;;;4959479;29;20075;-82
2023/09/28 08:56:53;;;;;;;17.20;3.35;;;18.20;99.90;;;;;;4984958;28;20127;-83
2023/09/28 08:59:20;;;;;;;17.33;3.35;;;18.40;99.90;;;;;;4994249;28;20061;-83
2023/09/28 09:01:47;;;;;;;16.50;3.65;;;18.30;99.90;;;;;;4986060;28;20045;-83
2023/09/28 09:04:14;;;;;;;19.52;3.78;;;18.30;99.90;;;;;;4974248;28;20105;-83
2023/09/28 09:06:42;;;;;;;24.08;4.30;;;18.40;99.90;;;;;;4974870;28;20035;-84
2023/09/28 09:09:13;;;;;;;18.33;3.38;;;18.30;99.90;;;;;;4974572;28;20080;-84
2023/09/28 09:11:40;;;;;;;15.98;3.30;;;18.50;99.90;;;;;;4974027;28;20074;-76
2023/09/28 09:14:05;;;;;;;17.52;3.75;;;18.40;99.90;;;;;;4980875;28;20050;-76
2023/09/28 09:16:31;;;;;;;17.27;3.80;;;18.30;99.90;;;;;;4974193;28;20058;-76
2023/09/28 09:18:57;;;;;;;20.38;3.33;;;18.50;99.90;;;;;;4994800;28;20062;-75
2023/09/28 09:21:24;;;;;;;23.77;3.53;;;18.40;99.90;;;;;;4980513;28;20049;-76
2023/09/28 09:24:03;;;;;;;18.98;3.65;;;18.50;99.90;;;;;;4974562;28;20043;-75
2023/09/28 09:26:41;;;;;;;18.13;3.67;;;18.40;99.90;;;;;;4974623;28;20100;-76
2023/09/28 09:29:07;;;;;;;17.55;3.47;;;18.40;99.90;;;;;;4974155;28;20589;-74
2023/09/28 09:31:35;;;;;;;19.35;3.28;;;18.40;99.90;;;;;;4973375;28;20101;-75
2023/09/28 09:34:04;;;;;;;20.55;4.10;;;18.50;99.90;;;;;;4991813;28;20054;-74
2023/09/28 09:36:30;;;;;;;17.45;3.67;;;18.40;99.90;;;;;;4993412;28;20453;-75
2023/09/28 09:38:58;;;;;;;21.23;3.75;;;18.40;99.90;;;;;;4992643;28;20134;-72
2023/09/28 09:41:24;;;;;;;20.60;3.78;;;18.30;99.90;;;;;;4993534;28;20129;-73
2023/09/28 09:43:51;;;;;;;17.08;3.55;;;18.50;99.90;;;;;;4993570;28;20100;-73
2023/09/28 09:46:17;;;;;;;23.80;4.32;;;18.60;99.90;;;;;;4994212;28;20050;-73
2023/09/28 09:48:44;;;;;;;17.48;3.38;;;18.50;99.90;;;;;;4998571;28;20583;-74
2023/09/28 09:51:15;;;;;;;17.50;3.58;;;18.60;99.90;;;;;;4996233;28;20042;-73
2023/09/28 09:53:47;;;;;;;16.75;2.92;;;18.60;99.90;;;;;;4992309;28;20042;-73
2023/09/28 09:56:15;;;;;;;23.50;4.22;;;18.70;99.90;;;;;;4993090;28;20046;-75
2023/09/28 09:58:42;;;;;;;18.67;3.78;;;18.70;99.90;;;;;;4992391;28;20050;-75
2023/09/28 10:01:12;;;;;;;16.15;3.00;;;18.70;99.90;;;;;;4994212;28;20104;-75
2023/09/28 10:03:48;;;;;;;15.93;3.97;;;18.80;99.90;;;;;;4994087;28;20072;-75
2023/09/28 10:06:19;;;;;;;21.10;3.28;;;19.00;99.90;;;;;;4992296;28;20061;-77
2023/09/28 10:08:46;;;;;;;22.50;3.55;;;19.00;99.90;;;;;;4991799;28;20054;-76
2023/09/28 10:11:12;;;;;;;13.45;3.10;;;19.10;99.90;;;;;;4976730;28;20053;-77
2023/09/28 10:13:42;;;;;;;21.42;3.67;;;19.20;99.90;;;;;;4975745;28;20042;-75
2023/09/28 10:16:12;;;;;;;14.30;2.78;;;19.40;99.90;;;;;;4993967;28;20537;-73
2023/09/28 10:18:41;;;;;;;12.90;2.75;;;19.50;99.90;;;;;;4977159;28;20046;-74
2023/09/28 10:21:07;;;;;;;14.32;2.72;;;19.50;99.90;;;;;;4975457;28;20042;-74
2023/09/28 10:23:32;;;;;;;12.95;2.78;;;19.40;99.90;;;;;;4993724;28;20068;-74
2023/09/28 10:26:03;;;;;;;11.23;2.45;;;19.40;99.90;;;;;;4976450;28;20042;-74
2023/09/28 10:28:29;;;;;;;16.27;2.80;;;19.50;99.90;;;;;;4975698;28;20482;-75
2023/09/28 10:31:10;;;;;;;13.93;2.92;;;19.40;99.90;;;;;;4965185;28;20074;-74
2023/09/28 10:33:55;;;;;;;10.43;2.85;;;19.60;99.90;;;;;;4980113;28;20042;-74
2023/09/28 10:36:21;;;;;;;12.50;2.67;;;19.50;99.90;;;;;;4974292;28;20069;-74
2023/09/28 10:39:01;;;;;;;10.45;2.75;;;19.40;99.90;;;;;;4956962;28;20409;-78
2023/09/28 10:41:27;;;;;;;14.00;2.67;;;19.50;99.90;;;;;;4956568;28;20050;-75
2023/09/28 10:43:56;;;;;;;13.90;3.15;;;19.40;99.90;;;;;;4956751;28;20133;-74
2023/09/28 10:46:23;;;;;;;15.02;2.67;;;19.40;99.90;;;;;;4956754;28;20043;-75
2023/09/28 10:48:51;;;;;;;14.48;3.22;;;19.40;99.90;;;;;;4956489;28;20503;-74
2023/09/28 10:51:20;;;;;;;9.98;3.05;;;19.50;99.90;;;;;;4956581;28;20057;-75
2023/09/28 10:53:46;;;;;;;18.10;3.03;;;19.70;99.90;;;;;;4956885;28;20101;-75
2023/09/28 10:56:12;;;;;;;12.60;2.63;;;19.70;99.90;;;;;;4972023;28;20043;-74
2023/09/28 10:58:40;;;;;;;11.18;2.33;;;19.80;99.90;;;;;;4956681;28;20081;-73
2023/09/28 11:01:06;;;;;;;12.25;2.42;;;19.80;99.90;;;;;;4956665;28;20043;-74
2023/09/28 11:03:33;;;;;;;12.23;2.53;;;19.70;99.90;;;;;;4960398;28;20146;-73
2023/09/28 11:06:02;;;;;;;14.15;2.67;;;19.80;99.90;;;;;;4975581;28;20386;-74
2023/09/28 11:08:28;;;;;;;11.65;2.70;;;20.00;99.90;;;;;;4975922;28;20061;-74
2023/09/28 11:10:55;;;;;;;12.05;2.90;;;20.10;99.90;;;;;;5193887;23;20045;-74
2023/09/28 11:13:21;;;;;;;13.93;2.60;;;20.20;99.90;;;;;;4978993;28;20054;-74
2023/09/28 11:15:50;;;;;;;13.80;2.80;;;20.30;99.90;;;;;;4974878;28;20500;-74
2023/09/28 11:18:18;;;;;;;12.25;2.88;;;20.40;99.90;;;;;;4992489;28;20100;-74
2023/09/28 11:20:44;;;;;;;11.30;2.45;;;20.40;99.90;;;;;;4993051;28;20108;-75
2023/09/28 11:23:13;;;;;;;11.23;2.80;;;20.60;99.90;;;;;;4989569;28;20117;-76
2023/09/28 11:25:40;;;;;;;11.82;2.33;;;20.70;99.90;;;;;;4995059;28;20128;-76
2023/09/28 11:28:09;;;;;;;19.85;3.78;;;20.60;99.90;;;;;;4994760;28;20050;-75
2023/09/28 11:30:35;;;;;;;12.15;2.33;;;20.50;99.90;;;;;;4994539;28;20042;-75
2023/09/28 11:33:06;;;;;;;11.73;2.78;;;20.40;99.90;;;;;;4992673;28;20047;-74
2023/09/28 11:35:34;;;;;;;12.15;2.38;;;20.30;99.90;;;;;;4987710;28;20037;-74
2023/09/28 11:38:02;;;;;;;13.40;2.50;;;20.10;99.90;;;;;;4991123;28;20045;-75
2023/09/28 11:40:29;;;;;;;12.52;3.00;;;20.10;99.90;;;;;;4990706;28;20046;-75
2023/09/28 11:42:58;;;;;;;17.70;3.03;;;19.80;99.90;;;;;;4992181;28;20041;-75
2023/09/28 11:45:33;;;;;;;12.38;2.50;;;19.90;99.90;;;;;;4992321;28;20077;-75
2023/09/28 11:48:11;;;;;;;14.15;2.55;;;19.80;99.90;;;;;;4990300;28;20097;-75
2023/09/28 11:50:38;;;;;;;16.17;3.10;;;19.70;99.90;;;;;;4987379;28;20043;-75
2023/09/28 11:53:08;;;;;;;15.07;2.78;;;19.60;99.90;;;;;;4991194;28;20039;-79
2023/09/28 11:55:35;;;;;;;12.68;3.03;;;19.50;99.90;;;;;;4976056;28;20078;-75
2023/09/28 11:58:02;;;;;;;14.73;3.00;;;19.40;99.90;;;;;;4975030;28;20094;-73
2023/09/28 12:00:28;;;;;;;12.43;2.60;;;19.40;99.90;;;;;;4972455;28;20046;-74
2023/09/28 12:02:54;;;;;;;15.45;3.15;;;19.30;99.90;;;;;;4974120;28;20410;-75
2023/09/28 12:05:21;;;;;;;18.58;3.17;;;19.30;99.90;;;;;;4990094;28;20042;-74
2023/09/28 12:07:46;;;;;;;12.45;2.55;;;19.50;99.90;;;;;;4972937;28;20101;-74
2023/09/28 12:10:13;;;;;;;13.57;2.92;;;19.40;99.90;;;;;;4976762;28;20153;-73
2023/09/28 12:12:40;;;;;;;13.57;2.78;;;19.50;99.90;;;;;;4990148;28;20064;-72
2023/09/28 12:15:10;;;;;;;12.80;2.70;;;19.70;99.90;;;;;;4973188;28;20116;-72
2023/09/28 12:17:41;;;;;;;20.00;3.17;;;19.80;99.90;;;;;;4973941;28;20046;-73
2023/09/28 12:20:09;;;;;;;14.60;3.03;;;19.90;99.90;;;;;;4991785;28;20077;-74
2023/09/28 12:22:44;;;;;;;16.70;2.78;;;20.10;99.90;;;;;;4992173;28;20045;-73
2023/09/28 12:25:10;;;;;;;18.23;3.50;;;20.10;99.90;;;;;;5007153;28;20075;-74
2023/09/28 12:27:36;;;;;;;19.08;3.35;;;20.20;99.90;;;;;;4992876;28;20099;-73
2023/09/28 12:30:03;;;;;;;14.65;3.38;;;20.40;99.90;;;;;;4996630;28;20061;-74
2023/09/28 12:32:30;;;;;;;14.82;3.00;;;20.40;99.90;;;;;;4996925;28;20091;-74
2023/09/28 12:34:56;;;;;;;12.65;2.75;;;20.60;99.90;;;;;;4990596;28;20088;-73